Warren, MA (01083)

6:37 PM EDT on July 29, 2016 (GMT -0400)
Old Bemis Farm | | Change Station

Elev 823 ft 42.18 °N, 72.19 °W | Updated 5 minutes ago

Mostly Cloudy
Mostly Cloudy
82.4 °F
Feels Like 89 °F
N
0.0
Wind Variable Wind from SW

Today
High -- | Low -- °F
--% Chance of Precip.
Yesterday
High -- | Low -- °F
Precip. -- in
Pressure 29.86 in
Visibility 10.0 miles
Clouds Scattered Clouds 7500 ft
Mostly Cloudy 9000 ft
Heat Index 89 °F
Dew Point 74 °F
Humidity 76%
Rainfall 0.61 in
Snow Depth Not available.
5:39 AM 8:10 PM
Waning Crescent, 18% visible
METAR KORH 292154Z 04004KT 10SM SCT075 BKN090 27/16 A2988 RMK AO2 SLP112 T02720156
Pressure 29.86 in
Visibility 10.0 miles
Clouds Scattered Clouds 7500 ft
Mostly Cloudy 9000 ft
Heat Index 89 °F
Dew Point 74 °F
Humidity 76%
Rainfall 0.61 in
Snow Depth Not available.
5:39 AM 8:10 PM
Waning Crescent, 18% visible
METAR KORH 292154Z 04004KT 10SM SCT075 BKN090 27/16 A2988 RMK AO2 SLP112 T02720156

10-Day Weather Forecast

Almanac

Astronomy

Jul. 29, 2016 Rise Set
Actual Time
Civil Twilight
Nautical Twilight
Astronomical Twilight
Moon
Length of Visible Light
Length of Day
Tomorrow will be .
, % of the Moon is Illuminated

Today's Extremes

State Highs State Lows

Community

WunderPhotos

Upload Photos

1,928,436 photos uploaded!

WunderBlog® & News

Nearby

Air Quality

  Air Quality AQ Index Pollutant
Not available.

Snow Depth

Station Depth Elevation

Earthquake Activity

City Distance Mag. Time & Date
Minimum magnitude displayed is 2.5.

Coastal Water Temperatures

Place Temperature

Stations

Nearby Weather Stations

Station Location Temp. Windchill Dew Point Humidity Wind Precip. Elev Updated Type
                   

Watches & Warnings

There are currently no watches in effect.